Hogestown, Pennsylvania
Current Conditions -  °F | °C
As of 1:17 PM on Sunday 21 Dec 2014 (Local Time) from KCXY Reporting Station
Overcast Overcast  
Wind Chill: 29°   Ceiling: 2900
Heat Index: 35°   Visibility: 10mi
Dew Point: 21°   Wind: 8mph
Humidity: 57%   Direction: 340°NNW
Pressure: 30.32"   Gusts: NA
Location:  40.2485°N, 77.0142°W
Report Text: KCXY 211817Z 34007KT 10SM OVC029 02/M06 A3032 RMK AO2 T00171061
Loading
Personal Weather Stations






























Interactive Weather Map New forecast layout! Learn more

10-Day Weather Forecast

Advertisements
Track Severe Weather on mobile